Byers, Texas
Current Conditions -  °F | °C
As of 11:52 PM on Monday 20 Oct 2014 (Local Time) from KSPS Reporting Station
Clear Clear  
Wind Chill: 65°   Ceiling: Unl
Heat Index: 65°   Visibility: 10mi
Dew Point: 58°   Wind: 9mph
Humidity: 78%   Direction: 170°S
Pressure: 30.04"   Gusts: NA
Location:  34.07°N, 98.19°W
Report Text: KSPS 210452Z AUTO 17008KT 10SM CLR 18/14 A3004 RMK AO2 SLP161 T01830144 TSNO
Loading
Personal Weather Stations






























Interactive Weather Map New forecast layout! Learn more

10-Day Weather Forecast

Advertisements
Track Severe Weather on mobile